createdAt,value
2018-09-14T00:03:55.772Z,24.61
2018-09-14T00:08:59.051Z,24.60
2018-09-14T00:14:02.333Z,24.60
2018-09-14T00:19:05.898Z,24.59
2018-09-14T00:24:09.170Z,24.58
2018-09-14T00:29:12.450Z,24.56
2018-09-14T00:34:15.731Z,24.55
2018-09-14T00:39:19.033Z,24.58
2018-09-14T00:44:22.434Z,24.54
2018-09-14T00:49:25.714Z,24.52
2018-09-14T00:54:29.035Z,24.51
2018-09-14T00:59:32.311Z,24.54
2018-09-14T01:04:35.593Z,24.55
2018-09-14T01:09:38.875Z,24.52
2018-09-14T01:14:42.158Z,24.50
2018-09-14T01:19:45.443Z,24.51
2018-09-14T01:24:48.734Z,24.48
2018-09-14T01:29:52.014Z,24.50
2018-09-14T01:34:55.307Z,24.48
2018-09-14T01:39:58.581Z,24.49
2018-09-14T01:45:01.883Z,24.51
2018-09-14T01:50:06.474Z,24.47
2018-09-14T01:55:09.775Z,24.46
2018-09-14T02:00:13.053Z,24.48
2018-09-14T02:05:16.327Z,24.49
2018-09-14T02:10:23.163Z,24.45
2018-09-14T02:15:26.470Z,24.43
2018-09-14T02:20:29.786Z,24.43
2018-09-14T02:25:33.129Z,24.43
2018-09-14T02:30:36.445Z,24.42
2018-09-14T02:35:39.774Z,24.41
2018-09-14T02:40:43.095Z,24.39
2018-09-14T02:45:46.406Z,24.40
2018-09-14T02:50:49.715Z,24.39
2018-09-14T02:55:53.018Z,24.39
2018-09-14T03:00:56.314Z,24.38
2018-09-14T03:05:59.619Z,24.37
2018-09-14T03:11:02.946Z,24.39
2018-09-14T03:16:06.247Z,24.36
2018-09-14T03:21:09.555Z,24.37
2018-09-14T03:26:13.028Z,24.37
2018-09-14T03:31:16.358Z,24.36
2018-09-14T03:36:19.672Z,24.36
2018-09-14T03:41:23.154Z,24.33
2018-09-14T03:46:26.447Z,24.35
2018-09-14T03:51:29.750Z,24.33
2018-09-14T03:56:33.046Z,24.31
2018-09-14T04:01:36.362Z,24.31
2018-09-14T04:06:39.677Z,24.30
2018-09-14T04:11:43.035Z,24.29
2018-09-14T04:16:46.343Z,24.29
2018-09-14T04:21:49.647Z,24.27
2018-09-14T04:26:52.957Z,24.23
2018-09-14T04:31:56.254Z,24.24
2018-09-14T04:36:59.546Z,24.26
2018-09-14T04:42:02.842Z,24.21
2018-09-14T04:47:06.373Z,24.20
2018-09-14T04:52:09.709Z,24.19
2018-09-14T04:57:13.057Z,24.17
2018-09-14T05:02:16.370Z,24.18
2018-09-14T05:07:19.641Z,24.18
2018-09-14T05:12:22.940Z,24.16
2018-09-14T05:17:26.252Z,24.14
2018-09-14T05:22:29.526Z,24.11
2018-09-14T05:27:32.815Z,24.13
2018-09-14T05:32:36.100Z,24.13
2018-09-14T05:37:39.394Z,24.12
2018-09-14T05:42:42.669Z,24.10
2018-09-14T05:47:45.972Z,24.09
2018-09-14T05:52:49.247Z,24.11
2018-09-14T05:57:52.576Z,24.09
2018-09-14T06:02:55.926Z,24.11
2018-09-14T06:07:59.170Z,24.09
2018-09-14T06:13:02.486Z,24.07
2018-09-14T06:18:05.766Z,24.08
2018-09-14T06:23:09.174Z,24.05
2018-09-14T06:28:12.382Z,24.00
2018-09-14T06:33:15.677Z,24.03
2018-09-14T06:38:19.025Z,24.05
2018-09-14T06:43:22.348Z,24.05
2018-09-14T06:48:26.419Z,24.03
2018-09-14T06:53:29.752Z,24.02
2018-09-14T06:58:33.063Z,24.03
2018-09-14T07:03:36.378Z,23.53
2018-09-14T07:08:39.690Z,23.44
2018-09-14T07:13:43.027Z,23.42
2018-09-14T07:18:46.618Z,23.33
2018-09-14T07:23:49.921Z,23.25
2018-09-14T07:28:53.277Z,23.22
2018-09-14T07:33:56.584Z,23.14
2018-09-14T07:38:59.894Z,23.01
2018-09-14T07:44:03.195Z,22.77
2018-09-14T07:49:06.618Z,22.79
2018-09-14T07:54:09.931Z,22.82
2018-09-14T07:59:13.254Z,22.63
2018-09-14T08:04:16.558Z,22.72
2018-09-14T08:09:19.899Z,22.67
2018-09-14T08:14:23.214Z,22.59
2018-09-14T08:19:26.523Z,22.55
2018-09-14T08:24:29.826Z,22.55
2018-09-14T08:29:33.137Z,22.51
2018-09-14T08:34:36.450Z,22.53
2018-09-14T08:39:39.749Z,22.41
2018-09-14T08:44:43.059Z,22.28
2018-09-14T08:49:46.366Z,22.19
2018-09-14T08:54:49.683Z,22.25
2018-09-14T08:59:52.997Z,22.33
2018-09-14T09:04:56.312Z,22.24
2018-09-14T09:09:59.632Z,22.14
2018-09-14T09:15:03.044Z,22.18
2018-09-14T09:20:06.595Z,22.31
2018-09-14T09:25:09.907Z,22.31
2018-09-14T09:30:13.215Z,22.23
2018-09-14T09:35:16.514Z,22.63
2018-09-14T09:40:19.822Z,22.79
2018-09-14T09:45:23.126Z,22.91
2018-09-14T09:50:26.451Z,22.99
2018-09-14T09:55:29.758Z,23.04
2018-09-14T10:00:38.494Z,23.11
2018-09-14T10:05:47.110Z,23.19
2018-09-14T10:10:50.540Z,23.22
2018-09-14T10:15:53.903Z,23.28
2018-09-14T10:20:57.233Z,23.32
2018-09-14T10:26:00.514Z,23.25
2018-09-14T10:31:03.858Z,23.22
2018-09-14T10:36:07.158Z,23.29
2018-09-14T10:41:10.438Z,23.33
2018-09-14T10:46:13.719Z,23.50
2018-09-14T10:51:17.023Z,23.53
2018-09-14T10:56:20.395Z,23.70
2018-09-14T11:01:23.701Z,23.72
2018-09-14T11:06:27.180Z,23.73
2018-09-14T11:11:30.458Z,23.90
2018-09-14T11:16:33.810Z,23.95
2018-09-14T11:21:37.129Z,23.89
2018-09-14T11:26:40.550Z,23.94
2018-09-14T11:31:43.875Z,24.00
2018-09-14T11:36:47.165Z,24.02
2018-09-14T11:41:50.459Z,24.02
2018-09-14T11:46:53.803Z,24.11
2018-09-14T11:51:57.094Z,23.93
2018-09-14T11:57:00.379Z,23.96
2018-09-14T12:02:03.712Z,23.95
2018-09-14T12:07:06.998Z,24.08
2018-09-14T12:12:10.747Z,24.19
2018-09-14T12:17:14.120Z,24.20
2018-09-14T12:22:17.458Z,24.24
2018-09-14T12:27:20.809Z,24.26
2018-09-14T12:32:24.146Z,24.32
2018-09-14T12:37:27.477Z,24.32
2018-09-14T12:42:30.776Z,24.34
2018-09-14T12:47:34.053Z,24.38
2018-09-14T12:52:37.547Z,24.37
2018-09-14T12:57:40.914Z,24.38
2018-09-14T13:02:44.283Z,24.42
2018-09-14T13:07:48.301Z,24.40
2018-09-14T13:12:51.869Z,24.35
2018-09-14T13:17:55.316Z,24.34
2018-09-14T13:22:59.002Z,24.34
2018-09-14T13:28:02.440Z,24.31
2018-09-14T13:33:05.754Z,24.32
2018-09-14T13:38:09.068Z,24.29
2018-09-14T13:43:12.391Z,24.28
2018-09-14T13:48:15.891Z,24.29
2018-09-14T13:53:19.286Z,24.25
2018-09-14T13:58:22.647Z,24.26
2018-09-14T14:03:25.930Z,24.39
2018-09-14T14:08:29.218Z,24.43
2018-09-14T14:13:32.506Z,24.53
2018-09-14T14:18:36.815Z,24.55
2018-09-14T14:23:40.108Z,24.49
2018-09-14T14:28:43.582Z,24.48
2018-09-14T14:33:46.896Z,24.55
2018-09-14T14:38:50.186Z,24.55
2018-09-14T14:43:54.430Z,24.53
2018-09-14T14:48:57.731Z,24.55
2018-09-14T14:54:01.044Z,24.61
2018-09-14T14:59:04.599Z,24.64
2018-09-14T15:04:08.011Z,24.69
2018-09-14T15:09:11.615Z,24.64
2018-09-14T15:14:14.996Z,24.63
2018-09-14T15:19:18.430Z,24.61
2018-09-14T15:24:21.703Z,24.63
2018-09-14T15:29:24.986Z,24.59
2018-09-14T15:34:28.424Z,24.68
2018-09-14T15:39:31.714Z,24.69
2018-09-14T15:44:35.014Z,24.64
2018-09-14T15:49:38.314Z,24.69
2018-09-14T15:54:41.621Z,24.66
2018-09-14T15:59:44.975Z,24.70
2018-09-14T16:04:48.281Z,24.71
2018-09-14T16:09:51.597Z,24.69
2018-09-14T16:14:54.878Z,24.63
2018-09-14T16:19:58.187Z,24.53
2018-09-14T16:25:01.484Z,24.55
2018-09-14T16:30:05.337Z,24.67
2018-09-14T16:35:08.859Z,24.67
2018-09-14T16:40:12.142Z,24.56
2018-09-14T16:45:15.445Z,24.64
2018-09-14T16:50:18.746Z,24.52
2018-09-14T16:55:22.034Z,24.55
2018-09-14T17:00:25.331Z,24.68
2018-09-14T17:05:28.780Z,24.55
2018-09-14T17:10:32.098Z,24.52
2018-09-14T17:15:35.382Z,24.71
2018-09-14T17:20:38.691Z,24.67
2018-09-14T17:25:41.966Z,24.50
2018-09-14T17:30:45.274Z,24.53
2018-09-14T17:35:48.579Z,24.60
2018-09-14T17:40:51.870Z,24.64
2018-09-14T17:45:55.168Z,24.60
2018-09-14T17:50:58.451Z,24.55
2018-09-14T17:56:01.763Z,24.66
2018-09-14T18:01:05.067Z,24.72
2018-09-14T18:06:08.346Z,24.73
2018-09-14T18:11:11.726Z,24.71
2018-09-14T18:16:15.060Z,24.66
2018-09-14T18:21:18.419Z,24.58
2018-09-14T18:26:21.807Z,24.57
2018-09-14T18:31:25.119Z,24.66
2018-09-14T18:36:28.483Z,24.54
2018-09-14T18:41:31.818Z,24.56
2018-09-14T18:46:35.240Z,24.60
2018-09-14T18:51:38.530Z,24.58
2018-09-14T18:56:41.810Z,24.55
2018-09-14T19:01:45.123Z,24.58
2018-09-14T19:06:48.423Z,24.58
2018-09-14T19:11:51.793Z,24.56
2018-09-14T19:16:55.398Z,24.55
2018-09-14T19:21:58.690Z,24.52
2018-09-14T19:27:01.981Z,24.48
2018-09-14T19:32:05.262Z,24.50
2018-09-14T19:37:08.558Z,24.47
2018-09-14T19:42:11.833Z,24.48
2018-09-14T19:47:15.115Z,24.43
2018-09-14T19:52:18.638Z,24.39
2018-09-14T19:57:21.939Z,24.37
2018-09-14T20:02:25.271Z,24.35
2018-09-14T20:07:28.550Z,24.33
2018-09-14T20:12:31.837Z,24.30
2018-09-14T20:17:35.595Z,24.29
2018-09-14T20:22:38.979Z,24.26
2018-09-14T20:27:42.270Z,24.28
2018-09-14T20:32:45.578Z,24.26
2018-09-14T20:37:48.866Z,24.21
2018-09-14T20:42:52.159Z,24.20
2018-09-14T20:47:55.506Z,24.16
2018-09-14T20:52:58.819Z,24.14
2018-09-14T20:58:02.159Z,24.09
2018-09-14T21:03:05.518Z,24.13
2018-09-14T21:08:08.815Z,24.09
2018-09-14T21:13:12.134Z,24.11
2018-09-14T21:18:15.447Z,24.12
2018-09-14T21:23:18.757Z,24.06
2018-09-14T21:28:22.067Z,24.06
2018-09-14T21:33:25.405Z,24.04
2018-09-14T21:38:28.789Z,24.01
2018-09-14T21:43:32.098Z,23.99
2018-09-14T21:48:35.606Z,24.02
2018-09-14T21:53:38.958Z,24.02
2018-09-14T21:58:42.394Z,23.99
2018-09-14T22:03:45.703Z,23.96
2018-09-14T22:08:49.010Z,23.98
2018-09-14T22:13:52.737Z,23.95
2018-09-14T22:18:56.048Z,23.97
2018-09-14T22:23:59.349Z,23.97
2018-09-14T22:29:02.676Z,23.98
2018-09-14T22:34:05.986Z,23.89
2018-09-14T22:39:10.934Z,23.91
2018-09-14T22:44:14.287Z,23.89
2018-09-14T22:49:17.590Z,23.89
2018-09-14T22:54:21.214Z,23.88
2018-09-14T22:59:24.855Z,23.89
2018-09-14T23:04:28.179Z,23.88
2018-09-14T23:09:31.486Z,23.85
2018-09-14T23:14:34.785Z,23.82
2018-09-14T23:19:38.081Z,23.80
2018-09-14T23:24:41.389Z,23.82
2018-09-14T23:29:44.694Z,23.81
2018-09-14T23:34:48.050Z,23.81
2018-09-14T23:39:51.346Z,23.82
2018-09-14T23:44:54.695Z,23.82
2018-09-14T23:49:57.994Z,23.81
2018-09-14T23:55:01.290Z,23.81
